Genesis Valiant — WDG9348 — position and weather

sailwx.info

Track history (hours):
 
Tides and Currents Weather Stations Pressure Air Temp Water Temp Dewpoint Dewpoint Depression Visibility Wind Speed Wind Dir Waves Ship Positions

Genesis Valiant

Owner: Genesis Marine, LLC, Houston, TX. More information available from US FCC via Universal Licensing System and Coast Guard Vessel Documentation Center.

Last reported at 2017-Nov-20 00:30 UTC. Time now 2017-Nov-20 04:02 UTC.
Position N 39°13' W 076°34'.

Length 30 m; draft 5 m.

Type: Towing. MMSI: 338495000.

Date/timePositionNaut miles runAvg speedWind from/ knotsBaromVisibWave heightAir tempDewpointWater temp
2017-Nov-20 00:30N 39°13' W 076°34'1 1.9
2017-Nov-20 00:00N 39°13' W 076°35'0 0.0
2017-Nov-19 23:30N 39°13' W 076°35'0 0.0
2017-Nov-19 23:00N 39°13' W 076°35'0 0.0
2017-Nov-19 22:30N 39°13' W 076°35'0 0.0
2017-Nov-19 22:00N 39°13' W 076°35'0 0.0
2017-Nov-19 21:30N 39°13' W 076°35'0 0.0
2017-Nov-19 21:00N 39°13' W 076°35'0 0.0
2017-Nov-19 20:30N 39°13' W 076°35'0 0.0
2017-Nov-19 20:00N 39°13' W 076°35'0 0.1
2017-Nov-19 19:30N 39°13' W 076°35'0 0.0
2017-Nov-19 19:00N 39°13' W 076°35'0 0.0
2017-Nov-19 18:30N 39°13' W 076°35'0 0.0
2017-Nov-19 18:00N 39°13' W 076°35'0 0.0
2017-Nov-19 17:30N 39°13' W 076°35'0 0.0
2017-Nov-19 17:00N 39°13' W 076°35'0 0.0
2017-Nov-19 16:30N 39°13' W 076°35'0 0.0
2017-Nov-19 16:00N 39°13' W 076°35'0 0.0
2017-Nov-19 15:30N 39°13' W 076°35'0 0.0
2017-Nov-19 15:00N 39°13' W 076°35'0 0.0
2017-Nov-19 14:30N 39°13' W 076°35'0 0.0
2017-Nov-19 14:00N 39°13' W 076°35'0 0.0
2017-Nov-19 13:30N 39°13' W 076°35'0 0.0
2017-Nov-19 13:00N 39°13' W 076°35'0 0.0
2017-Nov-19 12:30N 39°13' W 076°35'0 0.0
2017-Nov-19 12:00N 39°13' W 076°35'0 0.0
2017-Nov-19 11:30N 39°13' W 076°35'0 0.0
2017-Nov-19 11:00N 39°13' W 076°35'0 0.0
2017-Nov-19 10:30N 39°13' W 076°35'0 0.0
2017-Nov-19 09:57N 39°13' W 076°35'0 0.0
2017-Nov-19 09:21N 39°13' W 076°35'0 0.0
2017-Nov-19 08:57N 39°13' W 076°35'0 0.0
2017-Nov-19 08:30N 39°13' W 076°35'0 0.8
2017-Nov-19 08:00N 39°13' W 076°35'2 3.4
2017-Nov-19 07:31N 39°13' W 076°32'3 6.1
2017-Nov-19 07:00N 39°12' W 076°29'4 6.9
2017-Nov-19 06:27N 39°10' W 076°25'4 8.5
2017-Nov-19 06:00N 39°09' W 076°20'4 8.7
2017-Nov-19 05:30N 39°12' W 076°16'4 8.9
2017-Nov-19 05:00N 39°16' W 076°14'4 8.7
2017-Nov-19 04:30N 39°20' W 076°12'4 8.8
2017-Nov-19 04:00N 39°23' W 076°07'4 8.4
2017-Nov-19 03:30N 39°25' W 076°02'4 8.1
2017-Nov-19 03:00N 39°28' W 075°59'4 7.5
2017-Nov-19 02:30N 39°30' W 075°55'3 6.9
2017-Nov-19 02:00N 39°32' W 075°51'3 5.6
2017-Nov-19 01:30N 39°32' W 075°48'3 6.3
2017-Nov-19 01:00N 39°33' W 075°44'3 6.1
2017-Nov-19 00:30N 39°33' W 075°40'3 5.9
2017-Nov-19 00:01N 39°33' W 075°36'3 5.3
2017-Nov-18 23:30N 39°35' W 075°33'0 0.9
2017-Nov-18 23:00N 39°35' W 075°33'2 4.8
2017-Nov-18 22:30N 39°37' W 075°35'4 8.0
2017-Nov-18 22:00N 39°40' W 075°32'3 6.7
2017-Nov-18 21:30N 39°43' W 075°30'3 6.5
2017-Nov-18 21:00N 39°46' W 075°28'3 6.8
2017-Nov-18 20:30N 39°48' W 075°25'5 9.5
2017-Nov-18 20:00N 39°51' W 075°20'4 8.6
2017-Nov-18 19:30N 39°52' W 075°14'3 6.4
2017-Nov-18 19:01N 39°53' W 075°10'2 3.4
2017-Nov-18 18:30N 39°54' W 075°08'0 0.0
2017-Nov-18 18:00N 39°54' W 075°08'0 0.0
2017-Nov-18 17:30N 39°54' W 075°08'0 0.0
2017-Nov-18 17:00N 39°54' W 075°08'0 0.0
2017-Nov-18 16:30N 39°54' W 075°08'0 0.0
2017-Nov-18 16:00N 39°54' W 075°08'0 0.0
2017-Nov-18 15:30N 39°54' W 075°08'0 0.0
2017-Nov-18 15:00N 39°54' W 075°08'0 0.0
2017-Nov-18 14:30N 39°54' W 075°08'0 0.0
2017-Nov-18 14:00N 39°54' W 075°08'0 0.0
2017-Nov-18 13:30N 39°54' W 075°08'0 0.0
2017-Nov-18 13:00N 39°54' W 075°08'0 0.0
2017-Nov-18 12:30N 39°54' W 075°08'0 0.0
2017-Nov-18 12:00N 39°54' W 075°08'0 0.0
2017-Nov-18 11:30N 39°54' W 075°08'0 0.0
2017-Nov-18 11:00N 39°54' W 075°08'0 0.0
2017-Nov-18 10:30N 39°54' W 075°08'0 0.0
2017-Nov-18 10:00N 39°54' W 075°08'0 0.0
2017-Nov-18 09:30N 39°54' W 075°08'0 0.0
2017-Nov-18 09:00N 39°54' W 075°08'0 0.0
2017-Nov-18 08:30N 39°54' W 075°08'0 0.0
2017-Nov-18 08:00N 39°54' W 075°08'0 0.0
2017-Nov-18 07:30N 39°54' W 075°08'0 0.0
2017-Nov-18 07:00N 39°54' W 075°08'0 0.0
2017-Nov-18 06:30N 39°54' W 075°08'0 0.0
2017-Nov-18 06:00N 39°54' W 075°08'0 0.0
2017-Nov-18 05:30N 39°54' W 075°08'0 0.0
2017-Nov-18 05:00N 39°54' W 075°08'0 0.0
2017-Nov-18 04:30N 39°54' W 075°08'0 0.0
2017-Nov-18 04:00N 39°54' W 075°08'0 0.0
2017-Nov-18 03:30N 39°54' W 075°08'0 0.0
2017-Nov-18 03:00N 39°54' W 075°08'0 0.0
2017-Nov-18 02:30N 39°54' W 075°08'0 0.0
2017-Nov-18 02:01N 39°54' W 075°08'0 0.0
2017-Nov-18 01:30N 39°54' W 075°08'1 3.0
2017-Nov-18 01:00N 39°53' W 075°10'0 0.0
2017-Nov-18 00:30N 39°53' W 075°10'0 0.0
2017-Nov-17 23:59N 39°53' W 075°10'0 0.0
2017-Nov-17 23:29N 39°53' W 075°10'0 0.0
2017-Nov-17 22:59N 39°53' W 075°10'0 0.0
2017-Nov-17 22:29N 39°53' W 075°10'0 0.0
2017-Nov-17 21:59N 39°53' W 075°10'0 0.0
2017-Nov-17 21:29N 39°53' W 075°10'0 0.0
2017-Nov-17 20:59N 39°53' W 075°10'0 0.0
2017-Nov-17 20:29N 39°53' W 075°10'0 0.0
2017-Nov-17 19:59N 39°53' W 075°10'0 0.1
2017-Nov-17 19:29N 39°53' W 075°10'0 0.1
2017-Nov-17 18:59N 39°53' W 075°10'0 0.1
2017-Nov-17 18:29N 39°53' W 075°10'0 0.1
2017-Nov-17 17:59N 39°53' W 075°10'0 0.3
2017-Nov-17 17:31N 39°53' W 075°10'0 0.4
2017-Nov-17 17:00N 39°53' W 075°10'3 6.3
2017-Nov-17 16:31N 39°51' W 075°14'4 7.5
2017-Nov-17 16:01N 39°51' W 075°19'4 8.4
2017-Nov-17 15:30N 39°49' W 075°24'4 8.4
2017-Nov-17 15:00N 39°46' W 075°28'4 8.5
2017-Nov-17 14:31N 39°43' W 075°31'510.1
2017-Nov-17 14:00N 39°38' W 075°34'4 8.2
2017-Nov-17 13:30N 39°34' W 075°33'3 6.5
2017-Nov-17 13:00N 39°33' W 075°37'4 8.4
2017-Nov-17 12:30N 39°33' W 075°42'4 8.7
2017-Nov-17 12:00N 39°32' W 075°48'4 8.2
2017-Nov-17 11:30N 39°31' W 075°53'5 9.2
2017-Nov-17 11:00N 39°28' W 075°58'5 9.3
2017-Nov-17 10:30N 39°25' W 076°02'4 8.9
2017-Nov-17 10:00N 39°22' W 076°07'4 8.9
2017-Nov-17 09:30N 39°20' W 076°12'4 8.3
2017-Nov-17 09:00N 39°16' W 076°14'5 8.0
2017-Nov-17 08:23N 39°11' W 076°16'3 7.8
2017-Nov-17 07:57N 39°09' W 076°19'3 7.5
2017-Nov-17 07:30N 39°10' W 076°23'4 8.6
2017-Nov-17 07:00N 39°11' W 076°29'4 7.9
2017-Nov-17 06:30N 39°14' W 076°33'1 2.0
2017-Nov-17 06:00N 39°14' W 076°34'0 0.0
2017-Nov-17 05:30N 39°14' W 076°34'0 0.1
2017-Nov-17 04:59N 39°14' W 076°34'0 0.0
2017-Nov-17 04:29N 39°14' W 076°34'0 0.0
2017-Nov-17 03:59N 39°14' W 076°34'0 0.0
2017-Nov-17 03:29N 39°14' W 076°34'0 0.0
2017-Nov-17 02:59N 39°14' W 076°34'0 0.0
2017-Nov-17 02:29N 39°14' W 076°34'0 0.0
2017-Nov-17 02:00N 39°14' W 076°34'0 0.0
2017-Nov-17 01:30N 39°14' W 076°34'0 0.0
2017-Nov-17 01:00N 39°14' W 076°34'0 0.0
2017-Nov-17 00:30N 39°14' W 076°34'0 0.0
2017-Nov-17 00:00N 39°14' W 076°34'0 0.0
2017-Nov-16 23:30N 39°14' W 076°34'0 0.0
2017-Nov-16 23:00N 39°14' W 076°34'0 0.0
2017-Nov-16 22:30N 39°14' W 076°34'0 0.0
2017-Nov-16 22:00N 39°14' W 076°34'0 0.0
2017-Nov-16 21:30N 39°14' W 076°34'0 0.0
2017-Nov-16 21:00N 39°14' W 076°34'0 0.0
2017-Nov-16 20:30N 39°14' W 076°34'0 0.0
2017-Nov-16 20:00N 39°14' W 076°34'0 0.0
2017-Nov-16 19:30N 39°14' W 076°34'0 0.0
2017-Nov-16 19:00N 39°14' W 076°34'0 0.0
2017-Nov-16 18:30N 39°14' W 076°34'0 0.0
2017-Nov-16 18:00N 39°14' W 076°34'0 0.0
2017-Nov-16 17:30N 39°14' W 076°34'1 2.1
2017-Nov-16 17:00N 39°14' W 076°32'4 8.5
2017-Nov-16 16:30N 39°11' W 076°28'4 8.6
2017-Nov-16 16:00N 39°10' W 076°23'4 7.3
2017-Nov-16 15:29N 39°10' W 076°18'5 9.5
2017-Nov-16 15:00N 39°14' W 076°15'5 9.5
2017-Nov-16 14:30N 39°18' W 076°13'5 9.0
2017-Nov-16 14:00N 39°22' W 076°09'4 8.6
2017-Nov-16 13:30N 39°24' W 076°04'4 8.0
2017-Nov-16 13:00N 39°26' W 076°00'4 7.9
2017-Nov-16 12:30N 39°29' W 075°57'4 7.2
2017-Nov-16 12:00N 39°31' W 075°53'3 6.2
2017-Nov-16 11:30N 39°32' W 075°49'3 5.5
2017-Nov-16 11:00N 39°32' W 075°46'3 6.4
2017-Nov-16 10:30N 39°33' W 075°41'3 6.2
2017-Nov-16 10:00N 39°33' W 075°37'3 6.5
2017-Nov-16 09:30N 39°34' W 075°33'3 6.4
2017-Nov-16 09:00N 39°37' W 075°35'4 7.7
2017-Nov-16 08:30N 39°40' W 075°32'4 8.3
2017-Nov-16 08:00N 39°44' W 075°30'4 8.0
2017-Nov-16 07:30N 39°47' W 075°27'4 7.9
2017-Nov-16 07:00N 39°49' W 075°23'4 7.4
2017-Nov-16 06:30N 39°51' W 075°19'3 6.2
2017-Nov-16 06:00N 39°51' W 075°15'3 5.7
2017-Nov-16 05:30N 39°53' W 075°11'3 5.2
2017-Nov-16 05:01N 39°54' W 075°08'0 0.2
2017-Nov-16 04:28N 39°54' W 075°08'0 0.0
2017-Nov-16 03:58N 39°54' W 075°08'0 0.0
2017-Nov-16 03:28N 39°54' W 075°08'0 0.0
2017-Nov-16 02:58N 39°54' W 075°08'0 0.0
2017-Nov-16 02:28N 39°54' W 075°08'0 0.0
2017-Nov-16 01:58N 39°54' W 075°08'0 0.0
2017-Nov-16 01:25N 39°54' W 075°08'0 0.0
2017-Nov-16 00:58N 39°54' W 075°08'0 0.0
2017-Nov-16 00:28N 39°54' W 075°08'0 0.0
2017-Nov-15 23:58N 39°54' W 075°08'0 0.0
2017-Nov-15 23:28N 39°54' W 075°08'0 0.0
2017-Nov-15 22:58N 39°54' W 075°08'0 0.0
2017-Nov-15 22:28N 39°54' W 075°08'0 0.0
2017-Nov-15 21:58N 39°54' W 075°08'0 0.0
2017-Nov-15 21:28N 39°54' W 075°08'0 0.0
2017-Nov-15 20:58N 39°54' W 075°08'0 0.0
2017-Nov-15 20:28N 39°54' W 075°08'0 0.0
2017-Nov-15 19:58N 39°54' W 075°08'0 0.0
2017-Nov-15 19:28N 39°54' W 075°08'0 0.0
2017-Nov-15 18:58N 39°54' W 075°08'0 0.0
2017-Nov-15 18:28N 39°54' W 075°08'0 0.0
2017-Nov-15 17:58N 39°54' W 075°08'0 0.0
2017-Nov-15 17:28N 39°54' W 075°08'0 0.0
2017-Nov-15 16:58N 39°54' W 075°08'0 0.0
2017-Nov-15 16:28N 39°54' W 075°08'0 0.0
2017-Nov-15 15:58N 39°54' W 075°08'0 0.0
2017-Nov-15 15:28N 39°54' W 075°08'0 0.0
2017-Nov-15 14:58N 39°54' W 075°08'0 0.0
2017-Nov-15 14:30N 39°54' W 075°08'0 0.0
2017-Nov-15 14:00N 39°54' W 075°08'0 0.0
2017-Nov-15 13:30N 39°54' W 075°08'0 0.0
2017-Nov-15 13:00N 39°54' W 075°08'0 0.0
2017-Nov-15 12:30N 39°54' W 075°08'0 0.0
2017-Nov-15 12:00N 39°54' W 075°08'0 0.2
2017-Nov-15 11:30N 39°54' W 075°08'1 2.7
2017-Nov-15 11:00N 39°53' W 075°10'2 4.9
2017-Nov-15 10:31N 39°52' W 075°13'0 0.6
2017-Nov-15 10:00N 39°52' W 075°13'0 0.0
2017-Nov-15 09:30N 39°52' W 075°13'0 0.0
2017-Nov-15 08:58N 39°52' W 075°13'0 0.0
2017-Nov-15 08:28N 39°52' W 075°13'0 0.0
2017-Nov-15 07:58N 39°52' W 075°13'0 0.0
2017-Nov-15 07:28N 39°52' W 075°13'0 0.0
2017-Nov-15 06:58N 39°52' W 075°13'0 0.0
2017-Nov-15 06:28N 39°52' W 075°13'0 0.0
2017-Nov-15 05:58N 39°52' W 075°13'0 0.0
2017-Nov-15 05:28N 39°52' W 075°13'0 0.1
2017-Nov-15 04:58N 39°52' W 075°13'0 0.2
2017-Nov-15 04:28N 39°52' W 075°13'0 0.1
2017-Nov-15 03:58N 39°52' W 075°13'0 0.0
2017-Nov-15 03:28N 39°52' W 075°13'0 0.0
2017-Nov-15 02:58N 39°52' W 075°13'0 0.0
2017-Nov-15 02:28N 39°52' W 075°13'0 0.0
2017-Nov-15 01:58N 39°52' W 075°13'0 0.0
2017-Nov-15 01:28N 39°52' W 075°13'0 0.1
2017-Nov-15 01:00N 39°52' W 075°13'0 0.3
2017-Nov-15 00:31N 39°52' W 075°13'2 3.3
2017-Nov-14 23:59N 39°53' W 075°11'0 0.0
2017-Nov-14 23:29N 39°53' W 075°11'0 0.0
2017-Nov-14 22:59N 39°53' W 075°11'0 0.0
2017-Nov-14 22:29N 39°53' W 075°11'0 0.0
2017-Nov-14 21:59N 39°53' W 075°11'0 0.0
2017-Nov-14 21:29N 39°53' W 075°11'0 0.0
2017-Nov-14 20:59N 39°53' W 075°11'0 0.0
2017-Nov-14 20:29N 39°53' W 075°11'0 0.0
2017-Nov-14 19:59N 39°53' W 075°11'0 0.0
2017-Nov-14 19:29N 39°53' W 075°11'0 0.1
2017-Nov-14 19:00N 39°53' W 075°11'0 0.2
2017-Nov-14 18:29N 39°53' W 075°11'0 0.0
2017-Nov-14 17:59N 39°53' W 075°11'0 0.2
2017-Nov-14 17:31N 39°53' W 075°11'1 1.4
2017-Nov-14 17:01N 39°53' W 075°12'1 2.4
2017-Nov-14 16:29N 39°52' W 075°13'0 0.1
2017-Nov-14 15:59N 39°52' W 075°13'0 0.1
2017-Nov-14 15:29N 39°52' W 075°13'0 0.1
2017-Nov-14 14:59N 39°52' W 075°13'0 0.0
2017-Nov-14 14:29N 39°52' W 075°13'0 0.0
2017-Nov-14 13:59N 39°52' W 075°13'0 0.0
2017-Nov-14 13:29N 39°52' W 075°13'0 0.0
2017-Nov-14 12:59N 39°52' W 075°13'0 0.0
2017-Nov-14 12:29N 39°52' W 075°13'0 0.0
2017-Nov-14 11:59N 39°52' W 075°13'0 0.0
2017-Nov-14 11:29N 39°52' W 075°13'0 0.1
2017-Nov-14 10:59N 39°52' W 075°13'0 0.0
2017-Nov-14 10:29N 39°52' W 075°13'0 0.1
2017-Nov-14 09:59N 39°52' W 075°13'0 0.1
2017-Nov-14 09:29N 39°52' W 075°13'0 0.0
2017-Nov-14 08:59N 39°52' W 075°13'0 0.1
2017-Nov-14 08:29N 39°52' W 075°13'0 0.0
2017-Nov-14 07:59N 39°52' W 075°13'0 0.0
2017-Nov-14 07:29N 39°52' W 075°13'0 0.0
2017-Nov-14 06:59N 39°52' W 075°13'0 0.0
2017-Nov-14 06:29N 39°52' W 075°13'0 0.0
2017-Nov-14 05:59N 39°52' W 075°13'0 0.0
2017-Nov-14 05:29N 39°52' W 075°13'0 0.0
2017-Nov-14 04:59N 39°52' W 075°13'0 0.0
2017-Nov-14 04:29N 39°52' W 075°13'0 0.1
2017-Nov-14 03:59N 39°52' W 075°13'0 0.2
2017-Nov-14 03:29N 39°52' W 075°13'0 0.0
2017-Nov-14 02:59N 39°52' W 075°13'0 0.0
2017-Nov-14 02:29N 39°52' W 075°13'0 0.0
2017-Nov-14 01:59N 39°52' W 075°13'0 0.0
2017-Nov-14 01:29N 39°52' W 075°13'0 0.0
2017-Nov-14 00:59N 39°52' W 075°13'0 0.0
2017-Nov-14 00:29N 39°52' W 075°13'0 0.0
2017-Nov-13 23:59N 39°52' W 075°13'0 0.0
2017-Nov-13 23:29N 39°52' W 075°13'0 0.0
2017-Nov-13 22:59N 39°52' W 075°13'0 0.1
2017-Nov-13 22:29N 39°52' W 075°13'0 0.0
2017-Nov-13 21:59N 39°52' W 075°13'19 1.0
2017-Nov-13 02:01N 39°40' W 075°32'4 7.7
2017-Nov-13 01:31N 39°36' W 075°34'2 3.2
2017-Nov-13 01:00N 39°34' W 075°34'1 2.7
2017-Nov-13 00:31N 39°35' W 075°36'0 0.0
2017-Nov-13 00:00N 39°35' W 075°36'0 0.0
2017-Nov-12 23:30N 39°35' W 075°36'0 0.0
2017-Nov-12 23:00N 39°35' W 075°36'0 0.0
2017-Nov-12 22:30N 39°35' W 075°36'0 0.0
2017-Nov-12 22:00N 39°35' W 075°36'0 0.0
2017-Nov-12 21:30N 39°35' W 075°36'0 0.0
2017-Nov-12 20:59N 39°35' W 075°36'0 0.0
2017-Nov-12 20:30N 39°35' W 075°36'0 0.0
2017-Nov-12 20:00N 39°35' W 075°36'0 0.0
2017-Nov-12 19:30N 39°35' W 075°36'0 0.0
2017-Nov-12 19:00N 39°35' W 075°36'0 0.0
2017-Nov-12 18:30N 39°35' W 075°36'0 0.0
2017-Nov-12 18:00N 39°35' W 075°36'0 0.0
2017-Nov-12 17:30N 39°35' W 075°36'0 0.0
2017-Nov-12 17:00N 39°35' W 075°36'0 0.0
2017-Nov-12 16:30N 39°35' W 075°36'0 0.0
2017-Nov-12 16:00N 39°35' W 075°36'0 0.0
2017-Nov-12 15:30N 39°35' W 075°36'0 0.0
2017-Nov-12 15:00N 39°35' W 075°36'0 0.0
2017-Nov-12 14:30N 39°35' W 075°36'0 0.0
2017-Nov-12 14:00N 39°35' W 075°36'0 0.0
2017-Nov-12 13:30N 39°35' W 075°36'0 0.0
2017-Nov-12 13:00N 39°35' W 075°36'1 1.2
2017-Nov-12 12:30N 39°35' W 075°35'3 5.1
2017-Nov-12 12:00N 39°33' W 075°33'0 0.1
2017-Nov-12 11:28N 39°33' W 075°33'0 0.0
2017-Nov-12 10:58N 39°33' W 075°33'0 0.0
2017-Nov-12 10:28N 39°33' W 075°33'0 0.0
2017-Nov-12 09:58N 39°33' W 075°33'0 0.0
2017-Nov-12 09:28N 39°33' W 075°33'0 0.0
2017-Nov-12 08:58N 39°33' W 075°33'0 0.0
2017-Nov-12 08:28N 39°33' W 075°33'0 0.1
2017-Nov-12 07:58N 39°33' W 075°33'0 0.0
2017-Nov-12 07:28N 39°33' W 075°33'0 0.3
2017-Nov-12 06:58N 39°33' W 075°33'0 0.1
2017-Nov-12 06:28N 39°33' W 075°33'0 0.0
2017-Nov-12 05:58N 39°33' W 075°33'0 0.0
2017-Nov-12 05:28N 39°33' W 075°33'0 0.0
2017-Nov-12 04:58N 39°33' W 075°33'0 0.0
2017-Nov-12 04:28N 39°33' W 075°33'0 0.0
2017-Nov-12 03:58N 39°33' W 075°33'0 0.0
2017-Nov-12 03:28N 39°33' W 075°33'0 0.0
2017-Nov-12 02:58N 39°33' W 075°33'0 0.0
2017-Nov-12 02:28N 39°33' W 075°33'0 0.0
2017-Nov-12 01:58N 39°33' W 075°33'0 0.0
2017-Nov-12 01:28N 39°33' W 075°33'0 0.0
2017-Nov-12 00:58N 39°33' W 075°33'0 0.3
2017-Nov-12 00:28N 39°33' W 075°33'0 0.1
2017-Nov-11 23:58N 39°33' W 075°33'0 0.1
2017-Nov-11 23:28N 39°33' W 075°33'0 0.0
2017-Nov-11 22:58N 39°33' W 075°33'0 0.0
2017-Nov-11 22:28N 39°33' W 075°33'0 0.1
2017-Nov-11 22:00N 39°33' W 075°33'3 5.5
2017-Nov-11 21:30N 39°36' W 075°34'3 5.9
2017-Nov-11 21:00N 39°39' W 075°34'3 6.9
2017-Nov-11 20:30N 39°41' W 075°31'4 7.0
2017-Nov-11 20:00N 39°45' W 075°30'4 7.6
2017-Nov-11 19:30N 39°48' W 075°26'4 7.3
2017-Nov-11 19:00N 39°50' W 075°23'4 7.5
2017-Nov-11 18:30N 39°51' W 075°18'2 4.4
2017-Nov-11 18:00N 39°51' W 075°15'0 0.0
2017-Nov-11 17:30N 39°51' W 075°15'0 0.0
2017-Nov-11 17:00N 39°51' W 075°15'0 0.0
2017-Nov-11 16:30N 39°51' W 075°15'0 0.0
2017-Nov-11 16:00N 39°51' W 075°15'0 0.0
2017-Nov-11 15:30N 39°51' W 075°15'0 0.0
2017-Nov-11 15:00N 39°51' W 075°15'0 0.0
2017-Nov-11 14:30N 39°51' W 075°15'0 0.0
2017-Nov-11 14:00N 39°51' W 075°15'0 0.0
2017-Nov-11 13:30N 39°51' W 075°15'0 0.0
2017-Nov-11 13:00N 39°51' W 075°15'0 0.0
2017-Nov-11 12:30N 39°51' W 075°15'0 0.0
2017-Nov-11 12:00N 39°51' W 075°15'0 0.0
2017-Nov-11 11:30N 39°51' W 075°15'0 0.0
2017-Nov-11 11:00N 39°51' W 075°15'0 0.0
2017-Nov-11 10:30N 39°51' W 075°15'0 0.0
2017-Nov-11 10:00N 39°51' W 075°15'0 0.0
2017-Nov-11 09:30N 39°51' W 075°15'0 0.0
2017-Nov-11 09:00N 39°51' W 075°15'0 0.0
2017-Nov-11 08:30N 39°51' W 075°15'0 0.0
2017-Nov-11 08:00N 39°51' W 075°15'0 0.0
2017-Nov-11 07:30N 39°51' W 075°15'0 0.0
2017-Nov-11 07:00N 39°51' W 075°15'0 0.0
2017-Nov-11 06:30N 39°51' W 075°15'0 0.0
2017-Nov-11 06:01N 39°51' W 075°15'0 0.0
2017-Nov-11 05:30N 39°51' W 075°15'1 2.7
2017-Nov-11 05:01N 39°52' W 075°13'0 0.4
2017-Nov-11 04:31N 39°51' W 075°13'0 0.1
2017-Nov-11 03:58N 39°51' W 075°14'0 0.0
2017-Nov-11 03:28N 39°51' W 075°14'0 0.0
2017-Nov-11 02:58N 39°51' W 075°14'0 0.0
2017-Nov-11 02:28N 39°51' W 075°14'0 0.0
2017-Nov-11 01:58N 39°51' W 075°13'0 0.0
2017-Nov-11 01:25N 39°51' W 075°13'0 0.1
2017-Nov-11 00:58N 39°51' W 075°14'0 0.0
2017-Nov-11 00:28N 39°51' W 075°14'0 0.1
2017-Nov-10 23:58N 39°51' W 075°13'0 0.0
2017-Nov-10 23:28N 39°51' W 075°13'0 0.1
2017-Nov-10 22:58N 39°52' W 075°13'0 0.0
2017-Nov-10 22:28N 39°52' W 075°13'0 0.0
2017-Nov-10 21:58N 39°52' W 075°13'0 0.0
2017-Nov-10 21:25N 39°52' W 075°13'0 0.0
2017-Nov-10 20:58N 39°52' W 075°13'0 0.0
2017-Nov-10 20:28N 39°52' W 075°13'0 0.0
2017-Nov-10 19:58N 39°52' W 075°13'0 0.1
2017-Nov-10 19:28N 39°52' W 075°13'0 0.1
2017-Nov-10 18:58N 39°51' W 075°13'0 0.0
2017-Nov-10 18:28N 39°51' W 075°13'0 0.0
2017-Nov-10 17:58N 39°51' W 075°13'0 0.0
2017-Nov-10 17:28N 39°52' W 075°13'0 0.0
2017-Nov-10 16:58N 39°51' W 075°13'0 0.1
2017-Nov-10 16:28N 39°51' W 075°13'0 0.0
2017-Nov-10 15:58N 39°51' W 075°13'0 0.1
2017-Nov-10 15:28N 39°51' W 075°14'0 0.2
2017-Nov-10 14:58N 39°52' W 075°13'0 0.0
2017-Nov-10 14:28N 39°51' W 075°13'0 0.1
2017-Nov-10 13:58N 39°51' W 075°14'0 0.0
2017-Nov-10 13:28N 39°51' W 075°13'0 0.0
2017-Nov-10 12:58N 39°51' W 075°13'0 0.0
2017-Nov-10 12:28N 39°51' W 075°13'0 0.1
2017-Nov-10 11:58N 39°52' W 075°13'0 0.0
2017-Nov-10 11:28N 39°52' W 075°13'0 0.1
2017-Nov-10 10:58N 39°52' W 075°13'0 0.0
2017-Nov-10 10:25N 39°52' W 075°13'0 0.0
2017-Nov-10 09:58N 39°52' W 075°13'0 0.0
2017-Nov-10 09:28N 39°52' W 075°13'0 0.0
2017-Nov-10 08:58N 39°52' W 075°13'0 0.0
2017-Nov-10 08:28N 39°52' W 075°13'0 0.1
2017-Nov-10 07:58N 39°52' W 075°13'0 0.0
2017-Nov-10 07:28N 39°52' W 075°13'0 0.0
2017-Nov-10 06:58N 39°52' W 075°13'0 0.1
2017-Nov-10 06:28N 39°52' W 075°13'0 0.1
2017-Nov-10 05:58N 39°52' W 075°13'0 0.1
2017-Nov-10 05:28N 39°52' W 075°13'0 0.1
2017-Nov-10 04:58N 39°52' W 075°13'0 0.1
2017-Nov-10 04:28N 39°52' W 075°13'0 0.1
2017-Nov-10 03:58N 39°52' W 075°14'0 0.1
2017-Nov-10 03:28N 39°52' W 075°14'0 0.0
2017-Nov-10 02:58N 39°52' W 075°14'0 0.0
2017-Nov-10 02:28N 39°52' W 075°14'0 0.0
2017-Nov-10 01:58N 39°52' W 075°14'0 0.0
2017-Nov-10 01:28N 39°52' W 075°14'0 0.0
2017-Nov-10 00:58N 39°52' W 075°14'  
Track history (hours):
 
Tides and Currents Weather Stations Pressure Air Temp Water Temp Dewpoint Dewpoint Depression Visibility Wind Speed Wind Dir Waves Ship Positions

Genesis Valiant

Owner: Genesis Marine, LLC, Houston, TX. More information available from US FCC via Universal Licensing System and Coast Guard Vessel Documentation Center.

Last reported at 2017-Nov-20 00:30 UTC. Time now 2017-Nov-20 04:02 UTC.
Position N 39°13' W 076°34'.

Length 30 m; draft 5 m.

Type: Towing. MMSI: 338495000.

Date/timePositionNaut miles runAvg speedWind from/ knotsBaromVisibWave heightAir tempDewpointWater temp
2017-Nov-20 00:30N 39°13' W 076°34'1 1.9
2017-Nov-20 00:00N 39°13' W 076°35'0 0.0
2017-Nov-19 23:30N 39°13' W 076°35'0 0.0
2017-Nov-19 23:00N 39°13' W 076°35'0 0.0
2017-Nov-19 22:30N 39°13' W 076°35'0 0.0
2017-Nov-19 22:00N 39°13' W 076°35'0 0.0
2017-Nov-19 21:30N 39°13' W 076°35'0 0.0
2017-Nov-19 21:00N 39°13' W 076°35'0 0.0
2017-Nov-19 20:30N 39°13' W 076°35'0 0.0
2017-Nov-19 20:00N 39°13' W 076°35'0 0.1
2017-Nov-19 19:30N 39°13' W 076°35'0 0.0
2017-Nov-19 19:00N 39°13' W 076°35'0 0.0
2017-Nov-19 18:30N 39°13' W 076°35'0 0.0
2017-Nov-19 18:00N 39°13' W 076°35'0 0.0
2017-Nov-19 17:30N 39°13' W 076°35'0 0.0
2017-Nov-19 17:00N 39°13' W 076°35'0 0.0
2017-Nov-19 16:30N 39°13' W 076°35'0 0.0
2017-Nov-19 16:00N 39°13' W 076°35'0 0.0
2017-Nov-19 15:30N 39°13' W 076°35'0 0.0
2017-Nov-19 15:00N 39°13' W 076°35'0 0.0
2017-Nov-19 14:30N 39°13' W 076°35'0 0.0
2017-Nov-19 14:00N 39°13' W 076°35'0 0.0
2017-Nov-19 13:30N 39°13' W 076°35'0 0.0
2017-Nov-19 13:00N 39°13' W 076°35'0 0.0
2017-Nov-19 12:30N 39°13' W 076°35'0 0.0
2017-Nov-19 12:00N 39°13' W 076°35'0 0.0
2017-Nov-19 11:30N 39°13' W 076°35'0 0.0
2017-Nov-19 11:00N 39°13' W 076°35'0 0.0
2017-Nov-19 10:30N 39°13' W 076°35'0 0.0
2017-Nov-19 09:57N 39°13' W 076°35'0 0.0
2017-Nov-19 09:21N 39°13' W 076°35'0 0.0
2017-Nov-19 08:57N 39°13' W 076°35'0 0.0
2017-Nov-19 08:30N 39°13' W 076°35'0 0.8
2017-Nov-19 08:00N 39°13' W 076°35'2 3.4
2017-Nov-19 07:31N 39°13' W 076°32'3 6.1
2017-Nov-19 07:00N 39°12' W 076°29'4 6.9
2017-Nov-19 06:27N 39°10' W 076°25'4 8.5
2017-Nov-19 06:00N 39°09' W 076°20'4 8.7
2017-Nov-19 05:30N 39°12' W 076°16'4 8.9
2017-Nov-19 05:00N 39°16' W 076°14'4 8.7
2017-Nov-19 04:30N 39°20' W 076°12'4 8.8
2017-Nov-19 04:00N 39°23' W 076°07'4 8.4
2017-Nov-19 03:30N 39°25' W 076°02'4 8.1
2017-Nov-19 03:00N 39°28' W 075°59'4 7.5
2017-Nov-19 02:30N 39°30' W 075°55'3 6.9
2017-Nov-19 02:00N 39°32' W 075°51'3 5.6
2017-Nov-19 01:30N 39°32' W 075°48'3 6.3
2017-Nov-19 01:00N 39°33' W 075°44'3 6.1
2017-Nov-19 00:30N 39°33' W 075°40'3 5.9
2017-Nov-19 00:01N 39°33' W 075°36'3 5.3
2017-Nov-18 23:30N 39°35' W 075°33'0 0.9
2017-Nov-18 23:00N 39°35' W 075°33'2 4.8
2017-Nov-18 22:30N 39°37' W 075°35'4 8.0
2017-Nov-18 22:00N 39°40' W 075°32'3 6.7
2017-Nov-18 21:30N 39°43' W 075°30'3 6.5
2017-Nov-18 21:00N 39°46' W 075°28'3 6.8
2017-Nov-18 20:30N 39°48' W 075°25'5 9.5
2017-Nov-18 20:00N 39°51' W 075°20'4 8.6
2017-Nov-18 19:30N 39°52' W 075°14'3 6.4
2017-Nov-18 19:01N 39°53' W 075°10'2 3.4
2017-Nov-18 18:30N 39°54' W 075°08'0 0.0
2017-Nov-18 18:00N 39°54' W 075°08'0 0.0
2017-Nov-18 17:30N 39°54' W 075°08'0 0.0
2017-Nov-18 17:00N 39°54' W 075°08'0 0.0
2017-Nov-18 16:30N 39°54' W 075°08'0 0.0
2017-Nov-18 16:00N 39°54' W 075°08'0 0.0
2017-Nov-18 15:30N 39°54' W 075°08'0 0.0
2017-Nov-18 15:00N 39°54' W 075°08'0 0.0
2017-Nov-18 14:30N 39°54' W 075°08'0 0.0
2017-Nov-18 14:00N 39°54' W 075°08'0 0.0
2017-Nov-18 13:30N 39°54' W 075°08'0 0.0
2017-Nov-18 13:00N 39°54' W 075°08'0 0.0
2017-Nov-18 12:30N 39°54' W 075°08'0 0.0
2017-Nov-18 12:00N 39°54' W 075°08'0 0.0
2017-Nov-18 11:30N 39°54' W 075°08'0 0.0
2017-Nov-18 11:00N 39°54' W 075°08'0 0.0
2017-Nov-18 10:30N 39°54' W 075°08'0 0.0
2017-Nov-18 10:00N 39°54' W 075°08'0 0.0
2017-Nov-18 09:30N 39°54' W 075°08'0 0.0
2017-Nov-18 09:00N 39°54' W 075°08'0 0.0
2017-Nov-18 08:30N 39°54' W 075°08'0 0.0
2017-Nov-18 08:00N 39°54' W 075°08'0 0.0
2017-Nov-18 07:30N 39°54' W 075°08'0 0.0
2017-Nov-18 07:00N 39°54' W 075°08'0 0.0
2017-Nov-18 06:30N 39°54' W 075°08'0 0.0
2017-Nov-18 06:00N 39°54' W 075°08'0 0.0
2017-Nov-18 05:30N 39°54' W 075°08'0 0.0
2017-Nov-18 05:00N 39°54' W 075°08'0 0.0
2017-Nov-18 04:30N 39°54' W 075°08'0 0.0
2017-Nov-18 04:00N 39°54' W 075°08'0 0.0
2017-Nov-18 03:30N 39°54' W 075°08'0 0.0
2017-Nov-18 03:00N 39°54' W 075°08'0 0.0
2017-Nov-18 02:30N 39°54' W 075°08'0 0.0
2017-Nov-18 02:01N 39°54' W 075°08'0 0.0
2017-Nov-18 01:30N 39°54' W 075°08'1 3.0
2017-Nov-18 01:00N 39°53' W 075°10'0 0.0
2017-Nov-18 00:30N 39°53' W 075°10'0 0.0
2017-Nov-17 23:59N 39°53' W 075°10'0 0.0
2017-Nov-17 23:29N 39°53' W 075°10'0 0.0
2017-Nov-17 22:59N 39°53' W 075°10'0 0.0
2017-Nov-17 22:29N 39°53' W 075°10'0 0.0
2017-Nov-17 21:59N 39°53' W 075°10'0 0.0
2017-Nov-17 21:29N 39°53' W 075°10'0 0.0
2017-Nov-17 20:59N 39°53' W 075°10'0 0.0
2017-Nov-17 20:29N 39°53' W 075°10'0 0.0
2017-Nov-17 19:59N 39°53' W 075°10'0 0.1
2017-Nov-17 19:29N 39°53' W 075°10'0 0.1
2017-Nov-17 18:59N 39°53' W 075°10'0 0.1
2017-Nov-17 18:29N 39°53' W 075°10'0 0.1
2017-Nov-17 17:59N 39°53' W 075°10'0 0.3
2017-Nov-17 17:31N 39°53' W 075°10'0 0.4
2017-Nov-17 17:00N 39°53' W 075°10'3 6.3
2017-Nov-17 16:31N 39°51' W 075°14'4 7.5
2017-Nov-17 16:01N 39°51' W 075°19'4 8.4
2017-Nov-17 15:30N 39°49' W 075°24'4 8.4
2017-Nov-17 15:00N 39°46' W 075°28'4 8.5
2017-Nov-17 14:31N 39°43' W 075°31'510.1
2017-Nov-17 14:00N 39°38' W 075°34'4 8.2
2017-Nov-17 13:30N 39°34' W 075°33'3 6.5
2017-Nov-17 13:00N 39°33' W 075°37'4 8.4
2017-Nov-17 12:30N 39°33' W 075°42'4 8.7
2017-Nov-17 12:00N 39°32' W 075°48'4 8.2
2017-Nov-17 11:30N 39°31' W 075°53'5 9.2
2017-Nov-17 11:00N 39°28' W 075°58'5 9.3
2017-Nov-17 10:30N 39°25' W 076°02'4 8.9
2017-Nov-17 10:00N 39°22' W 076°07'4 8.9
2017-Nov-17 09:30N 39°20' W 076°12'4 8.3
2017-Nov-17 09:00N 39°16' W 076°14'5 8.0
2017-Nov-17 08:23N 39°11' W 076°16'3 7.8
2017-Nov-17 07:57N 39°09' W 076°19'3 7.5
2017-Nov-17 07:30N 39°10' W 076°23'4 8.6
2017-Nov-17 07:00N 39°11' W 076°29'4 7.9
2017-Nov-17 06:30N 39°14' W 076°33'1 2.0
2017-Nov-17 06:00N 39°14' W 076°34'0 0.0
2017-Nov-17 05:30N 39°14' W 076°34'0 0.1
2017-Nov-17 04:59N 39°14' W 076°34'0 0.0
2017-Nov-17 04:29N 39°14' W 076°34'0 0.0
2017-Nov-17 03:59N 39°14' W 076°34'0 0.0
2017-Nov-17 03:29N 39°14' W 076°34'0 0.0
2017-Nov-17 02:59N 39°14' W 076°34'0 0.0
2017-Nov-17 02:29N 39°14' W 076°34'0 0.0
2017-Nov-17 02:00N 39°14' W 076°34'0 0.0
2017-Nov-17 01:30N 39°14' W 076°34'0 0.0
2017-Nov-17 01:00N 39°14' W 076°34'0 0.0
2017-Nov-17 00:30N 39°14' W 076°34'0 0.0
2017-Nov-17 00:00N 39°14' W 076°34'0 0.0
2017-Nov-16 23:30N 39°14' W 076°34'0 0.0
2017-Nov-16 23:00N 39°14' W 076°34'0 0.0
2017-Nov-16 22:30N 39°14' W 076°34'0 0.0
2017-Nov-16 22:00N 39°14' W 076°34'0 0.0
2017-Nov-16 21:30N 39°14' W 076°34'0 0.0
2017-Nov-16 21:00N 39°14' W 076°34'0 0.0
2017-Nov-16 20:30N 39°14' W 076°34'0 0.0
2017-Nov-16 20:00N 39°14' W 076°34'0 0.0
2017-Nov-16 19:30N 39°14' W 076°34'0 0.0
2017-Nov-16 19:00N 39°14' W 076°34'0 0.0
2017-Nov-16 18:30N 39°14' W 076°34'0 0.0
2017-Nov-16 18:00N 39°14' W 076°34'0 0.0
2017-Nov-16 17:30N 39°14' W 076°34'1 2.1
2017-Nov-16 17:00N 39°14' W 076°32'4 8.5
2017-Nov-16 16:30N 39°11' W 076°28'4 8.6
2017-Nov-16 16:00N 39°10' W 076°23'4 7.3
2017-Nov-16 15:29N 39°10' W 076°18'5 9.5
2017-Nov-16 15:00N 39°14' W 076°15'5 9.5
2017-Nov-16 14:30N 39°18' W 076°13'5 9.0
2017-Nov-16 14:00N 39°22' W 076°09'4 8.6
2017-Nov-16 13:30N 39°24' W 076°04'4 8.0
2017-Nov-16 13:00N 39°26' W 076°00'4 7.9
2017-Nov-16 12:30N 39°29' W 075°57'4 7.2
2017-Nov-16 12:00N 39°31' W 075°53'3 6.2
2017-Nov-16 11:30N 39°32' W 075°49'3 5.5
2017-Nov-16 11:00N 39°32' W 075°46'3 6.4
2017-Nov-16 10:30N 39°33' W 075°41'3 6.2
2017-Nov-16 10:00N 39°33' W 075°37'3 6.5
2017-Nov-16 09:30N 39°34' W 075°33'3 6.4
2017-Nov-16 09:00N 39°37' W 075°35'4 7.7
2017-Nov-16 08:30N 39°40' W 075°32'4 8.3
2017-Nov-16 08:00N 39°44' W 075°30'4 8.0
2017-Nov-16 07:30N 39°47' W 075°27'4 7.9
2017-Nov-16 07:00N 39°49' W 075°23'4 7.4
2017-Nov-16 06:30N 39°51' W 075°19'3 6.2
2017-Nov-16 06:00N 39°51' W 075°15'3 5.7
2017-Nov-16 05:30N 39°53' W 075°11'3 5.2
2017-Nov-16 05:01N 39°54' W 075°08'0 0.2
2017-Nov-16 04:28N 39°54' W 075°08'0 0.0
2017-Nov-16 03:58N 39°54' W 075°08'0 0.0
2017-Nov-16 03:28N 39°54' W 075°08'0 0.0
2017-Nov-16 02:58N 39°54' W 075°08'0 0.0
2017-Nov-16 02:28N 39°54' W 075°08'0 0.0
2017-Nov-16 01:58N 39°54' W 075°08'0 0.0
2017-Nov-16 01:25N 39°54' W 075°08'0 0.0
2017-Nov-16 00:58N 39°54' W 075°08'0 0.0
2017-Nov-16 00:28N 39°54' W 075°08'0 0.0
2017-Nov-15 23:58N 39°54' W 075°08'0 0.0
2017-Nov-15 23:28N 39°54' W 075°08'0 0.0
2017-Nov-15 22:58N 39°54' W 075°08'0 0.0
2017-Nov-15 22:28N 39°54' W 075°08'0 0.0
2017-Nov-15 21:58N 39°54' W 075°08'0 0.0
2017-Nov-15 21:28N 39°54' W 075°08'0 0.0
2017-Nov-15 20:58N 39°54' W 075°08'0 0.0
2017-Nov-15 20:28N 39°54' W 075°08'0 0.0
2017-Nov-15 19:58N 39°54' W 075°08'0 0.0
2017-Nov-15 19:28N 39°54' W 075°08'0 0.0
2017-Nov-15 18:58N 39°54' W 075°08'0 0.0
2017-Nov-15 18:28N 39°54' W 075°08'0 0.0
2017-Nov-15 17:58N 39°54' W 075°08'0 0.0
2017-Nov-15 17:28N 39°54' W 075°08'0 0.0
2017-Nov-15 16:58N 39°54' W 075°08'0 0.0
2017-Nov-15 16:28N 39°54' W 075°08'0 0.0
2017-Nov-15 15:58N 39°54' W 075°08'0 0.0
2017-Nov-15 15:28N 39°54' W 075°08'0 0.0
2017-Nov-15 14:58N 39°54' W 075°08'0 0.0
2017-Nov-15 14:30N 39°54' W 075°08'0 0.0
2017-Nov-15 14:00N 39°54' W 075°08'0 0.0
2017-Nov-15 13:30N 39°54' W 075°08'0 0.0
2017-Nov-15 13:00N 39°54' W 075°08'0 0.0
2017-Nov-15 12:30N 39°54' W 075°08'0 0.0
2017-Nov-15 12:00N 39°54' W 075°08'0 0.2
2017-Nov-15 11:30N 39°54' W 075°08'1 2.7
2017-Nov-15 11:00N 39°53' W 075°10'2 4.9
2017-Nov-15 10:31N 39°52' W 075°13'0 0.6
2017-Nov-15 10:00N 39°52' W 075°13'0 0.0
2017-Nov-15 09:30N 39°52' W 075°13'0 0.0
2017-Nov-15 08:58N 39°52' W 075°13'0 0.0
2017-Nov-15 08:28N 39°52' W 075°13'0 0.0
2017-Nov-15 07:58N 39°52' W 075°13'0 0.0
2017-Nov-15 07:28N 39°52' W 075°13'0 0.0
2017-Nov-15 06:58N 39°52' W 075°13'0 0.0
2017-Nov-15 06:28N 39°52' W 075°13'0 0.0
2017-Nov-15 05:58N 39°52' W 075°13'0 0.0
2017-Nov-15 05:28N 39°52' W 075°13'0 0.1
2017-Nov-15 04:58N 39°52' W 075°13'0 0.2
2017-Nov-15 04:28N 39°52' W 075°13'0 0.1
2017-Nov-15 03:58N 39°52' W 075°13'0 0.0
2017-Nov-15 03:28N 39°52' W 075°13'0 0.0
2017-Nov-15 02:58N 39°52' W 075°13'0 0.0
2017-Nov-15 02:28N 39°52' W 075°13'0 0.0
2017-Nov-15 01:58N 39°52' W 075°13'0 0.0
2017-Nov-15 01:28N 39°52' W 075°13'0 0.1
2017-Nov-15 01:00N 39°52' W 075°13'0 0.3
2017-Nov-15 00:31N 39°52' W 075°13'2 3.3
2017-Nov-14 23:59N 39°53' W 075°11'0 0.0
2017-Nov-14 23:29N 39°53' W 075°11'0 0.0
2017-Nov-14 22:59N 39°53' W 075°11'0 0.0
2017-Nov-14 22:29N 39°53' W 075°11'0 0.0
2017-Nov-14 21:59N 39°53' W 075°11'0 0.0
2017-Nov-14 21:29N 39°53' W 075°11'0 0.0
2017-Nov-14 20:59N 39°53' W 075°11'0 0.0
2017-Nov-14 20:29N 39°53' W 075°11'0 0.0
2017-Nov-14 19:59N 39°53' W 075°11'0 0.0
2017-Nov-14 19:29N 39°53' W 075°11'0 0.1
2017-Nov-14 19:00N 39°53' W 075°11'0 0.2
2017-Nov-14 18:29N 39°53' W 075°11'0 0.0
2017-Nov-14 17:59N 39°53' W 075°11'0 0.2
2017-Nov-14 17:31N 39°53' W 075°11'1 1.4
2017-Nov-14 17:01N 39°53' W 075°12'1 2.4
2017-Nov-14 16:29N 39°52' W 075°13'0 0.1
2017-Nov-14 15:59N 39°52' W 075°13'0 0.1
2017-Nov-14 15:29N 39°52' W 075°13'0 0.1
2017-Nov-14 14:59N 39°52' W 075°13'0 0.0
2017-Nov-14 14:29N 39°52' W 075°13'0 0.0
2017-Nov-14 13:59N 39°52' W 075°13'0 0.0
2017-Nov-14 13:29N 39°52' W 075°13'0 0.0
2017-Nov-14 12:59N 39°52' W 075°13'0 0.0
2017-Nov-14 12:29N 39°52' W 075°13'0 0.0
2017-Nov-14 11:59N 39°52' W 075°13'0 0.0
2017-Nov-14 11:29N 39°52' W 075°13'0 0.1
2017-Nov-14 10:59N 39°52' W 075°13'0 0.0
2017-Nov-14 10:29N 39°52' W 075°13'0 0.1
2017-Nov-14 09:59N 39°52' W 075°13'0 0.1
2017-Nov-14 09:29N 39°52' W 075°13'0 0.0
2017-Nov-14 08:59N 39°52' W 075°13'0 0.1
2017-Nov-14 08:29N 39°52' W 075°13'0 0.0
2017-Nov-14 07:59N 39°52' W 075°13'0 0.0
2017-Nov-14 07:29N 39°52' W 075°13'0 0.0
2017-Nov-14 06:59N 39°52' W 075°13'0 0.0
2017-Nov-14 06:29N 39°52' W 075°13'0 0.0
2017-Nov-14 05:59N 39°52' W 075°13'0 0.0
2017-Nov-14 05:29N 39°52' W 075°13'0 0.0
2017-Nov-14 04:59N 39°52' W 075°13'0 0.0
2017-Nov-14 04:29N 39°52' W 075°13'0 0.1
2017-Nov-14 03:59N 39°52' W 075°13'0 0.2
2017-Nov-14 03:29N 39°52' W 075°13'0 0.0
2017-Nov-14 02:59N 39°52' W 075°13'0 0.0
2017-Nov-14 02:29N 39°52' W 075°13'0 0.0
2017-Nov-14 01:59N 39°52' W 075°13'0 0.0
2017-Nov-14 01:29N 39°52' W 075°13'0 0.0
2017-Nov-14 00:59N 39°52' W 075°13'0 0.0
2017-Nov-14 00:29N 39°52' W 075°13'0 0.0
2017-Nov-13 23:59N 39°52' W 075°13'0 0.0
2017-Nov-13 23:29N 39°52' W 075°13'0 0.0
2017-Nov-13 22:59N 39°52' W 075°13'0 0.1
2017-Nov-13 22:29N 39°52' W 075°13'0 0.0
2017-Nov-13 21:59N 39°52' W 075°13'19 1.0
2017-Nov-13 02:01N 39°40' W 075°32'4 7.7
2017-Nov-13 01:31N 39°36' W 075°34'2 3.2
2017-Nov-13 01:00N 39°34' W 075°34'1 2.7
2017-Nov-13 00:31N 39°35' W 075°36'0 0.0
2017-Nov-13 00:00N 39°35' W 075°36'0 0.0
2017-Nov-12 23:30N 39°35' W 075°36'0 0.0
2017-Nov-12 23:00N 39°35' W 075°36'0 0.0
2017-Nov-12 22:30N 39°35' W 075°36'0 0.0
2017-Nov-12 22:00N 39°35' W 075°36'0 0.0
2017-Nov-12 21:30N 39°35' W 075°36'0 0.0
2017-Nov-12 20:59N 39°35' W 075°36'0 0.0
2017-Nov-12 20:30N 39°35' W 075°36'0 0.0
2017-Nov-12 20:00N 39°35' W 075°36'0 0.0
2017-Nov-12 19:30N 39°35' W 075°36'0 0.0
2017-Nov-12 19:00N 39°35' W 075°36'0 0.0
2017-Nov-12 18:30N 39°35' W 075°36'0 0.0
2017-Nov-12 18:00N 39°35' W 075°36'0 0.0
2017-Nov-12 17:30N 39°35' W 075°36'0 0.0
2017-Nov-12 17:00N 39°35' W 075°36'0 0.0
2017-Nov-12 16:30N 39°35' W 075°36'0 0.0
2017-Nov-12 16:00N 39°35' W 075°36'0 0.0
2017-Nov-12 15:30N 39°35' W 075°36'0 0.0
2017-Nov-12 15:00N 39°35' W 075°36'0 0.0
2017-Nov-12 14:30N 39°35' W 075°36'0 0.0
2017-Nov-12 14:00N 39°35' W 075°36'0 0.0
2017-Nov-12 13:30N 39°35' W 075°36'0 0.0
2017-Nov-12 13:00N 39°35' W 075°36'1 1.2
2017-Nov-12 12:30N 39°35' W 075°35'3 5.1
2017-Nov-12 12:00N 39°33' W 075°33'0 0.1
2017-Nov-12 11:28N 39°33' W 075°33'0 0.0
2017-Nov-12 10:58N 39°33' W 075°33'0 0.0
2017-Nov-12 10:28N 39°33' W 075°33'0 0.0
2017-Nov-12 09:58N 39°33' W 075°33'0 0.0
2017-Nov-12 09:28N 39°33' W 075°33'0 0.0
2017-Nov-12 08:58N 39°33' W 075°33'0 0.0
2017-Nov-12 08:28N 39°33' W 075°33'0 0.1
2017-Nov-12 07:58N 39°33' W 075°33'0 0.0
2017-Nov-12 07:28N 39°33' W 075°33'0 0.3
2017-Nov-12 06:58N 39°33' W 075°33'0 0.1
2017-Nov-12 06:28N 39°33' W 075°33'0 0.0
2017-Nov-12 05:58N 39°33' W 075°33'0 0.0
2017-Nov-12 05:28N 39°33' W 075°33'0 0.0
2017-Nov-12 04:58N 39°33' W 075°33'0 0.0
2017-Nov-12 04:28N 39°33' W 075°33'0 0.0
2017-Nov-12 03:58N 39°33' W 075°33'0 0.0
2017-Nov-12 03:28N 39°33' W 075°33'0 0.0
2017-Nov-12 02:58N 39°33' W 075°33'0 0.0
2017-Nov-12 02:28N 39°33' W 075°33'0 0.0
2017-Nov-12 01:58N 39°33' W 075°33'0 0.0
2017-Nov-12 01:28N 39°33' W 075°33'0 0.0
2017-Nov-12 00:58N 39°33' W 075°33'0 0.3
2017-Nov-12 00:28N 39°33' W 075°33'0 0.1
2017-Nov-11 23:58N 39°33' W 075°33'0 0.1
2017-Nov-11 23:28N 39°33' W 075°33'0 0.0
2017-Nov-11 22:58N 39°33' W 075°33'0 0.0
2017-Nov-11 22:28N 39°33' W 075°33'0 0.1
2017-Nov-11 22:00N 39°33' W 075°33'3 5.5
2017-Nov-11 21:30N 39°36' W 075°34'3 5.9
2017-Nov-11 21:00N 39°39' W 075°34'3 6.9
2017-Nov-11 20:30N 39°41' W 075°31'4 7.0
2017-Nov-11 20:00N 39°45' W 075°30'4 7.6
2017-Nov-11 19:30N 39°48' W 075°26'4 7.3
2017-Nov-11 19:00N 39°50' W 075°23'4 7.5
2017-Nov-11 18:30N 39°51' W 075°18'2 4.4
2017-Nov-11 18:00N 39°51' W 075°15'0 0.0
2017-Nov-11 17:30N 39°51' W 075°15'0 0.0
2017-Nov-11 17:00N 39°51' W 075°15'0 0.0
2017-Nov-11 16:30N 39°51' W 075°15'0 0.0
2017-Nov-11 16:00N 39°51' W 075°15'0 0.0
2017-Nov-11 15:30N 39°51' W 075°15'0 0.0
2017-Nov-11 15:00N 39°51' W 075°15'0 0.0
2017-Nov-11 14:30N 39°51' W 075°15'0 0.0
2017-Nov-11 14:00N 39°51' W 075°15'0 0.0
2017-Nov-11 13:30N 39°51' W 075°15'0 0.0
2017-Nov-11 13:00N 39°51' W 075°15'0 0.0
2017-Nov-11 12:30N 39°51' W 075°15'0 0.0
2017-Nov-11 12:00N 39°51' W 075°15'0 0.0
2017-Nov-11 11:30N 39°51' W 075°15'0 0.0
2017-Nov-11 11:00N 39°51' W 075°15'0 0.0
2017-Nov-11 10:30N 39°51' W 075°15'0 0.0
2017-Nov-11 10:00N 39°51' W 075°15'0 0.0
2017-Nov-11 09:30N 39°51' W 075°15'0 0.0
2017-Nov-11 09:00N 39°51' W 075°15'0 0.0
2017-Nov-11 08:30N 39°51' W 075°15'0 0.0
2017-Nov-11 08:00N 39°51' W 075°15'0 0.0
2017-Nov-11 07:30N 39°51' W 075°15'0 0.0
2017-Nov-11 07:00N 39°51' W 075°15'0 0.0
2017-Nov-11 06:30N 39°51' W 075°15'0 0.0
2017-Nov-11 06:01N 39°51' W 075°15'0 0.0
2017-Nov-11 05:30N 39°51' W 075°15'1 2.7
2017-Nov-11 05:01N 39°52' W 075°13'0 0.4
2017-Nov-11 04:31N 39°51' W 075°13'0 0.1
2017-Nov-11 03:58N 39°51' W 075°14'0 0.0
2017-Nov-11 03:28N 39°51' W 075°14'0 0.0
2017-Nov-11 02:58N 39°51' W 075°14'0 0.0
2017-Nov-11 02:28N 39°51' W 075°14'0 0.0
2017-Nov-11 01:58N 39°51' W 075°13'0 0.0
2017-Nov-11 01:25N 39°51' W 075°13'0 0.1
2017-Nov-11 00:58N 39°51' W 075°14'0 0.0
2017-Nov-11 00:28N 39°51' W 075°14'0 0.1
2017-Nov-10 23:58N 39°51' W 075°13'0 0.0
2017-Nov-10 23:28N 39°51' W 075°13'0 0.1
2017-Nov-10 22:58N 39°52' W 075°13'0 0.0
2017-Nov-10 22:28N 39°52' W 075°13'0 0.0
2017-Nov-10 21:58N 39°52' W 075°13'0 0.0
2017-Nov-10 21:25N 39°52' W 075°13'0 0.0
2017-Nov-10 20:58N 39°52' W 075°13'0 0.0
2017-Nov-10 20:28N 39°52' W 075°13'0 0.0
2017-Nov-10 19:58N 39°52' W 075°13'0 0.1
2017-Nov-10 19:28N 39°52' W 075°13'0 0.1
2017-Nov-10 18:58N 39°51' W 075°13'0 0.0
2017-Nov-10 18:28N 39°51' W 075°13'0 0.0
2017-Nov-10 17:58N 39°51' W 075°13'0 0.0
2017-Nov-10 17:28N 39°52' W 075°13'0 0.0
2017-Nov-10 16:58N 39°51' W 075°13'0 0.1
2017-Nov-10 16:28N 39°51' W 075°13'0 0.0
2017-Nov-10 15:58N 39°51' W 075°13'0 0.1
2017-Nov-10 15:28N 39°51' W 075°14'0 0.2
2017-Nov-10 14:58N 39°52' W 075°13'0 0.0
2017-Nov-10 14:28N 39°51' W 075°13'0 0.1
2017-Nov-10 13:58N 39°51' W 075°14'0 0.0
2017-Nov-10 13:28N 39°51' W 075°13'0 0.0
2017-Nov-10 12:58N 39°51' W 075°13'0 0.0
2017-Nov-10 12:28N 39°51' W 075°13'0 0.1
2017-Nov-10 11:58N 39°52' W 075°13'0 0.0
2017-Nov-10 11:28N 39°52' W 075°13'0 0.1
2017-Nov-10 10:58N 39°52' W 075°13'0 0.0
2017-Nov-10 10:25N 39°52' W 075°13'0 0.0
2017-Nov-10 09:58N 39°52' W 075°13'0 0.0
2017-Nov-10 09:28N 39°52' W 075°13'0 0.0
2017-Nov-10 08:58N 39°52' W 075°13'0 0.0
2017-Nov-10 08:28N 39°52' W 075°13'0 0.1
2017-Nov-10 07:58N 39°52' W 075°13'0 0.0
2017-Nov-10 07:28N 39°52' W 075°13'0 0.0
2017-Nov-10 06:58N 39°52' W 075°13'0 0.1
2017-Nov-10 06:28N 39°52' W 075°13'0 0.1
2017-Nov-10 05:58N 39°52' W 075°13'0 0.1
2017-Nov-10 05:28N 39°52' W 075°13'0 0.1
2017-Nov-10 04:58N 39°52' W 075°13'0 0.1
2017-Nov-10 04:28N 39°52' W 075°13'0 0.1
2017-Nov-10 03:58N 39°52' W 075°14'0 0.1
2017-Nov-10 03:28N 39°52' W 075°14'0 0.0
2017-Nov-10 02:58N 39°52' W 075°14'0 0.0
2017-Nov-10 02:28N 39°52' W 075°14'0 0.0
2017-Nov-10 01:58N 39°52' W 075°14'0 0.0
2017-Nov-10 01:28N 39°52' W 075°14'0 0.0
2017-Nov-10 00:58N 39°52' W 075°14'  

Dump ship's entire track history